sensor_id;sensor_type;location;lat;lon;timestamp;P1;durP1;ratioP1;P2;durP2;ratioP2
11238;SDS011;5677;48.488;13.436;2022-08-01T00:01:17;2.90;;;2.70;;
11238;SDS011;5677;48.488;13.436;2022-08-01T00:03:44;3.33;;;2.80;;
11238;SDS011;5677;48.488;13.436;2022-08-01T00:06:11;2.87;;;2.40;;
11238;SDS011;5677;48.488;13.436;2022-08-01T00:08:38;3.60;;;2.90;;
11238;SDS011;5677;48.488;13.436;2022-08-01T00:11:07;3.07;;;2.70;;
11238;SDS011;5677;48.488;13.436;2022-08-01T00:13:34;2.90;;;2.70;;
11238;SDS011;5677;48.488;13.436;2022-08-01T00:16:02;2.83;;;2.63;;
11238;SDS011;5677;48.488;13.436;2022-08-01T00:18:29;3.37;;;2.50;;
11238;SDS011;5677;48.488;13.436;2022-08-01T00:20:56;2.80;;;2.50;;
11238;SDS011;5677;48.488;13.436;2022-08-01T00:23:23;2.83;;;2.63;;
11238;SDS011;5677;48.488;13.436;2022-08-01T00:25:50;3.20;;;2.90;;
11238;SDS011;5677;48.488;13.436;2022-08-01T00:28:18;2.80;;;2.60;;
11238;SDS011;5677;48.488;13.436;2022-08-01T00:30:45;2.63;;;2.40;;
11238;SDS011;5677;48.488;13.436;2022-08-01T00:33:12;3.07;;;2.50;;
11238;SDS011;5677;48.488;13.436;2022-08-01T00:35:39;2.50;;;2.27;;
11238;SDS011;5677;48.488;13.436;2022-08-01T00:38:06;3.20;;;2.73;;
11238;SDS011;5677;48.488;13.436;2022-08-01T00:40:33;2.87;;;2.50;;
11238;SDS011;5677;48.488;13.436;2022-08-01T00:43:00;2.73;;;2.53;;
11238;SDS011;5677;48.488;13.436;2022-08-01T00:45:28;2.60;;;2.40;;
11238;SDS011;5677;48.488;13.436;2022-08-01T00:47:55;3.00;;;2.50;;
11238;SDS011;5677;48.488;13.436;2022-08-01T00:50:22;2.53;;;2.33;;
11238;SDS011;5677;48.488;13.436;2022-08-01T00:52:49;2.80;;;2.60;;
11238;SDS011;5677;48.488;13.436;2022-08-01T00:55:17;2.63;;;2.43;;
11238;SDS011;5677;48.488;13.436;2022-08-01T00:57:45;2.50;;;2.30;;
11238;SDS011;5677;48.488;13.436;2022-08-01T01:00:13;2.70;;;2.47;;
11238;SDS011;5677;48.488;13.436;2022-08-01T01:02:42;4.10;;;2.53;;
11238;SDS011;5677;48.488;13.436;2022-08-01T01:05:09;2.73;;;2.50;;
11238;SDS011;5677;48.488;13.436;2022-08-01T01:07:38;3.70;;;2.60;;
11238;SDS011;5677;48.488;13.436;2022-08-01T01:10:15;5.20;;;2.87;;
11238;SDS011;5677;48.488;13.436;2022-08-01T01:12:50;2.87;;;2.57;;
11238;SDS011;5677;48.488;13.436;2022-08-01T01:15:26;2.50;;;2.30;;
11238;SDS011;5677;48.488;13.436;2022-08-01T01:18:03;2.47;;;2.27;;
11238;SDS011;5677;48.488;13.436;2022-08-01T01:20:37;2.80;;;2.50;;
11238;SDS011;5677;48.488;13.436;2022-08-01T01:23:20;3.00;;;2.80;;
11238;SDS011;5677;48.488;13.436;2022-08-01T01:26:17;3.63;;;2.50;;
11238;SDS011;5677;48.488;13.436;2022-08-01T01:29:03;4.30;;;2.57;;
11238;SDS011;5677;48.488;13.436;2022-08-01T01:31:40;4.13;;;2.83;;
11238;SDS011;5677;48.488;13.436;2022-08-01T01:34:12;3.90;;;2.50;;
11238;SDS011;5677;48.488;13.436;2022-08-01T01:36:43;3.70;;;2.60;;
11238;SDS011;5677;48.488;13.436;2022-08-01T01:39:13;4.03;;;2.33;;
11238;SDS011;5677;48.488;13.436;2022-08-01T01:41:43;2.70;;;2.50;;
11238;SDS011;5677;48.488;13.436;2022-08-01T01:44:14;3.07;;;2.60;;
11238;SDS011;5677;48.488;13.436;2022-08-01T01:46:44;3.00;;;2.70;;
11238;SDS011;5677;48.488;13.436;2022-08-01T01:49:13;2.47;;;2.27;;
11238;SDS011;5677;48.488;13.436;2022-08-01T01:51:42;2.90;;;2.50;;
11238;SDS011;5677;48.488;13.436;2022-08-01T01:54:12;3.40;;;2.67;;
11238;SDS011;5677;48.488;13.436;2022-08-01T01:56:39;3.17;;;2.63;;
11238;SDS011;5677;48.488;13.436;2022-08-01T01:59:16;3.03;;;2.50;;
11238;SDS011;5677;48.488;13.436;2022-08-01T02:01:47;3.40;;;2.63;;
11238;SDS011;5677;48.488;13.436;2022-08-01T02:04:18;2.60;;;2.40;;
11238;SDS011;5677;48.488;13.436;2022-08-01T02:06:49;2.50;;;2.30;;
11238;SDS011;5677;48.488;13.436;2022-08-01T02:09:19;2.50;;;2.30;;
11238;SDS011;5677;48.488;13.436;2022-08-01T02:11:49;3.03;;;2.73;;
11238;SDS011;5677;48.488;13.436;2022-08-01T02:14:18;3.03;;;2.47;;
11238;SDS011;5677;48.488;13.436;2022-08-01T02:16:48;2.83;;;2.50;;
11238;SDS011;5677;48.488;13.436;2022-08-01T02:19:16;2.60;;;2.40;;
11238;SDS011;5677;48.488;13.436;2022-08-01T02:21:46;2.90;;;2.40;;
11238;SDS011;5677;48.488;13.436;2022-08-01T02:24:20;2.70;;;2.47;;
11238;SDS011;5677;48.488;13.436;2022-08-01T02:26:57;4.10;;;2.70;;
11238;SDS011;5677;48.488;13.436;2022-08-01T02:29:36;3.37;;;2.63;;
11238;SDS011;5677;48.488;13.436;2022-08-01T02:32:07;2.60;;;2.37;;
11238;SDS011;5677;48.488;13.436;2022-08-01T02:34:46;2.60;;;2.40;;
11238;SDS011;5677;48.488;13.436;2022-08-01T02:37:17;2.87;;;2.37;;
11238;SDS011;5677;48.488;13.436;2022-08-01T02:39:46;2.90;;;2.60;;
11238;SDS011;5677;48.488;13.436;2022-08-01T02:42:16;2.90;;;2.50;;
11238;SDS011;5677;48.488;13.436;2022-08-01T02:44:47;4.37;;;2.37;;
11238;SDS011;5677;48.488;13.436;2022-08-01T02:47:16;3.43;;;2.50;;
11238;SDS011;5677;48.488;13.436;2022-08-01T02:49:46;2.90;;;2.70;;
11238;SDS011;5677;48.488;13.436;2022-08-01T02:52:18;2.40;;;2.20;;
11238;SDS011;5677;48.488;13.436;2022-08-01T02:54:50;2.93;;;2.60;;
11238;SDS011;5677;48.488;13.436;2022-08-01T02:57:20;3.90;;;2.60;;
11238;SDS011;5677;48.488;13.436;2022-08-01T02:59:51;2.50;;;2.30;;
11238;SDS011;5677;48.488;13.436;2022-08-01T03:02:22;2.60;;;2.40;;
11238;SDS011;5677;48.488;13.436;2022-08-01T03:04:50;2.57;;;2.37;;
11238;SDS011;5677;48.488;13.436;2022-08-01T03:07:19;2.90;;;2.30;;
11238;SDS011;5677;48.488;13.436;2022-08-01T03:09:48;5.50;;;2.60;;
11238;SDS011;5677;48.488;13.436;2022-08-01T03:12:18;2.47;;;2.27;;
11238;SDS011;5677;48.488;13.436;2022-08-01T03:14:49;4.10;;;2.27;;
11238;SDS011;5677;48.488;13.436;2022-08-01T03:17:23;2.60;;;2.30;;
11238;SDS011;5677;48.488;13.436;2022-08-01T03:19:52;2.93;;;2.47;;
11238;SDS011;5677;48.488;13.436;2022-08-01T03:22:22;2.70;;;2.50;;
11238;SDS011;5677;48.488;13.436;2022-08-01T03:24:52;2.30;;;2.10;;
11238;SDS011;5677;48.488;13.436;2022-08-01T03:27:21;2.50;;;2.30;;
11238;SDS011;5677;48.488;13.436;2022-08-01T03:29:52;3.67;;;2.33;;
11238;SDS011;5677;48.488;13.436;2022-08-01T03:32:22;2.70;;;2.50;;
11238;SDS011;5677;48.488;13.436;2022-08-01T03:34:53;2.93;;;2.67;;
11238;SDS011;5677;48.488;13.436;2022-08-01T03:37:21;2.40;;;2.20;;
11238;SDS011;5677;48.488;13.436;2022-08-01T03:39:54;3.23;;;2.57;;
11238;SDS011;5677;48.488;13.436;2022-08-01T03:42:27;2.57;;;2.37;;
11238;SDS011;5677;48.488;13.436;2022-08-01T03:45:04;3.23;;;2.20;;
11238;SDS011;5677;48.488;13.436;2022-08-01T03:47:35;2.40;;;2.20;;
11238;SDS011;5677;48.488;13.436;2022-08-01T03:50:03;2.30;;;2.10;;
11238;SDS011;5677;48.488;13.436;2022-08-01T03:52:33;3.50;;;2.53;;
11238;SDS011;5677;48.488;13.436;2022-08-01T03:55:06;3.43;;;2.23;;
11238;SDS011;5677;48.488;13.436;2022-08-01T03:57:34;3.57;;;2.60;;
11238;SDS011;5677;48.488;13.436;2022-08-01T04:00:05;2.50;;;2.30;;
11238;SDS011;5677;48.488;13.436;2022-08-01T04:02:34;2.87;;;2.63;;
11238;SDS011;5677;48.488;13.436;2022-08-01T04:05:03;4.43;;;2.70;;
11238;SDS011;5677;48.488;13.436;2022-08-01T04:07:32;2.67;;;2.47;;
11238;SDS011;5677;48.488;13.436;2022-08-01T04:10:01;2.83;;;2.30;;
11238;SDS011;5677;48.488;13.436;2022-08-01T04:12:29;3.13;;;2.30;;
11238;SDS011;5677;48.488;13.436;2022-08-01T04:14:57;2.70;;;2.37;;
11238;SDS011;5677;48.488;13.436;2022-08-01T04:17:26;3.77;;;2.33;;
11238;SDS011;5677;48.488;13.436;2022-08-01T04:19:53;2.67;;;2.37;;
11238;SDS011;5677;48.488;13.436;2022-08-01T04:22:19;3.30;;;2.40;;
11238;SDS011;5677;48.488;13.436;2022-08-01T04:24:47;2.40;;;2.20;;
11238;SDS011;5677;48.488;13.436;2022-08-01T04:27:21;2.20;;;2.00;;
11238;SDS011;5677;48.488;13.436;2022-08-01T04:29:54;2.20;;;2.10;;
11238;SDS011;5677;48.488;13.436;2022-08-01T04:32:26;3.07;;;2.43;;
11238;SDS011;5677;48.488;13.436;2022-08-01T04:34:57;3.00;;;2.10;;
11238;SDS011;5677;48.488;13.436;2022-08-01T04:37:28;2.17;;;1.97;;
11238;SDS011;5677;48.488;13.436;2022-08-01T04:39:56;2.53;;;2.10;;
11238;SDS011;5677;48.488;13.436;2022-08-01T04:42:26;2.83;;;2.57;;
11238;SDS011;5677;48.488;13.436;2022-08-01T04:44:53;7.17;;;2.63;;
11238;SDS011;5677;48.488;13.436;2022-08-01T04:47:20;3.10;;;2.30;;
11238;SDS011;5677;48.488;13.436;2022-08-01T04:49:50;2.40;;;2.20;;
11238;SDS011;5677;48.488;13.436;2022-08-01T04:52:19;2.50;;;2.27;;
11238;SDS011;5677;48.488;13.436;2022-08-01T04:54:46;3.40;;;2.20;;
11238;SDS011;5677;48.488;13.436;2022-08-01T04:57:13;2.57;;;2.33;;
11238;SDS011;5677;48.488;13.436;2022-08-01T04:59:42;2.60;;;2.40;;
11238;SDS011;5677;48.488;13.436;2022-08-01T05:02:11;2.50;;;2.30;;
11238;SDS011;5677;48.488;13.436;2022-08-01T05:04:43;2.20;;;2.00;;
11238;SDS011;5677;48.488;13.436;2022-08-01T05:07:13;2.50;;;2.30;;
11238;SDS011;5677;48.488;13.436;2022-08-01T05:09:41;2.60;;;2.40;;
11238;SDS011;5677;48.488;13.436;2022-08-01T05:12:10;2.60;;;2.17;;
11238;SDS011;5677;48.488;13.436;2022-08-01T05:14:38;2.87;;;2.30;;
11238;SDS011;5677;48.488;13.436;2022-08-01T05:17:06;2.80;;;2.10;;
11238;SDS011;5677;48.488;13.436;2022-08-01T05:19:36;2.23;;;2.10;;
11238;SDS011;5677;48.488;13.436;2022-08-01T05:22:06;2.50;;;2.20;;
11238;SDS011;5677;48.488;13.436;2022-08-01T05:24:37;3.17;;;2.23;;
11238;SDS011;5677;48.488;13.436;2022-08-01T05:27:06;2.23;;;2.10;;
11238;SDS011;5677;48.488;13.436;2022-08-01T05:29:33;2.10;;;2.00;;
11238;SDS011;5677;48.488;13.436;2022-08-01T05:32:01;2.50;;;2.30;;
11238;SDS011;5677;48.488;13.436;2022-08-01T05:34:28;2.20;;;1.90;;
11238;SDS011;5677;48.488;13.436;2022-08-01T05:36:55;2.30;;;2.10;;
11238;SDS011;5677;48.488;13.436;2022-08-01T05:39:22;2.30;;;2.10;;
11238;SDS011;5677;48.488;13.436;2022-08-01T05:41:50;2.03;;;1.93;;
11238;SDS011;5677;48.488;13.436;2022-08-01T05:44:17;2.40;;;2.20;;
11238;SDS011;5677;48.488;13.436;2022-08-01T05:46:44;2.53;;;2.20;;
11238;SDS011;5677;48.488;13.436;2022-08-01T05:49:12;2.00;;;1.90;;
11238;SDS011;5677;48.488;13.436;2022-08-01T05:51:39;3.07;;;2.13;;
11238;SDS011;5677;48.488;13.436;2022-08-01T05:54:06;3.03;;;2.20;;
11238;SDS011;5677;48.488;13.436;2022-08-01T05:56:33;5.73;;;2.63;;
11238;SDS011;5677;48.488;13.436;2022-08-01T05:59:02;4.67;;;3.10;;
11238;SDS011;5677;48.488;13.436;2022-08-01T06:01:29;5.47;;;2.80;;
11238;SDS011;5677;48.488;13.436;2022-08-01T06:03:56;3.13;;;2.67;;
11238;SDS011;5677;48.488;13.436;2022-08-01T06:06:23;3.13;;;2.73;;
11238;SDS011;5677;48.488;13.436;2022-08-01T06:08:50;5.93;;;3.07;;
11238;SDS011;5677;48.488;13.436;2022-08-01T06:11:17;3.40;;;3.10;;
11238;SDS011;5677;48.488;13.436;2022-08-01T06:13:44;5.23;;;2.80;;
11238;SDS011;5677;48.488;13.436;2022-08-01T06:16:13;3.80;;;3.00;;
11238;SDS011;5677;48.488;13.436;2022-08-01T06:18:40;4.17;;;2.93;;
11238;SDS011;5677;48.488;13.436;2022-08-01T06:21:06;3.10;;;2.90;;
11238;SDS011;5677;48.488;13.436;2022-08-01T06:23:33;3.20;;;2.93;;
11238;SDS011;5677;48.488;13.436;2022-08-01T06:26:00;3.60;;;3.00;;
11238;SDS011;5677;48.488;13.436;2022-08-01T06:28:28;4.67;;;3.27;;
11238;SDS011;5677;48.488;13.436;2022-08-01T06:30:55;4.97;;;3.97;;
11238;SDS011;5677;48.488;13.436;2022-08-01T06:33:24;3.40;;;3.10;;
11238;SDS011;5677;48.488;13.436;2022-08-01T06:35:51;3.80;;;3.10;;
11238;SDS011;5677;48.488;13.436;2022-08-01T06:38:18;3.60;;;2.90;;
11238;SDS011;5677;48.488;13.436;2022-08-01T06:40:45;4.40;;;2.80;;
11238;SDS011;5677;48.488;13.436;2022-08-01T06:43:13;3.00;;;2.73;;
11238;SDS011;5677;48.488;13.436;2022-08-01T06:45:40;4.37;;;3.10;;
11238;SDS011;5677;48.488;13.436;2022-08-01T06:48:07;2.80;;;2.53;;
11238;SDS011;5677;48.488;13.436;2022-08-01T06:50:35;3.27;;;2.97;;
11238;SDS011;5677;48.488;13.436;2022-08-01T06:53:02;2.70;;;2.50;;
11238;SDS011;5677;48.488;13.436;2022-08-01T06:55:30;5.73;;;2.90;;
11238;SDS011;5677;48.488;13.436;2022-08-01T06:57:57;3.93;;;3.20;;
11238;SDS011;5677;48.488;13.436;2022-08-01T07:00:24;3.97;;;3.10;;
11238;SDS011;5677;48.488;13.436;2022-08-01T07:02:53;4.10;;;3.70;;
11238;SDS011;5677;48.488;13.436;2022-08-01T07:05:23;4.60;;;3.60;;
11238;SDS011;5677;48.488;13.436;2022-08-01T07:07:51;5.33;;;3.40;;
11238;SDS011;5677;48.488;13.436;2022-08-01T07:10:19;3.30;;;3.00;;
11238;SDS011;5677;48.488;13.436;2022-08-01T07:12:46;4.10;;;3.67;;
11238;SDS011;5677;48.488;13.436;2022-08-01T07:15:13;3.73;;;2.93;;
11238;SDS011;5677;48.488;13.436;2022-08-01T07:17:41;4.80;;;3.37;;
11238;SDS011;5677;48.488;13.436;2022-08-01T07:20:11;4.40;;;3.17;;
11238;SDS011;5677;48.488;13.436;2022-08-01T07:22:39;3.30;;;3.00;;
11238;SDS011;5677;48.488;13.436;2022-08-01T07:25:07;4.17;;;2.97;;
11238;SDS011;5677;48.488;13.436;2022-08-01T07:27:35;6.47;;;3.03;;
11238;SDS011;5677;48.488;13.436;2022-08-01T07:30:04;4.17;;;3.20;;
11238;SDS011;5677;48.488;13.436;2022-08-01T07:32:32;7.30;;;3.90;;
11238;SDS011;5677;48.488;13.436;2022-08-01T07:34:59;3.40;;;2.90;;
11238;SDS011;5677;48.488;13.436;2022-08-01T07:37:27;5.83;;;2.90;;
11238;SDS011;5677;48.488;13.436;2022-08-01T07:39:54;3.30;;;2.97;;
11238;SDS011;5677;48.488;13.436;2022-08-01T07:42:22;7.73;;;3.37;;
11238;SDS011;5677;48.488;13.436;2022-08-01T07:44:49;4.67;;;3.00;;
11238;SDS011;5677;48.488;13.436;2022-08-01T07:47:23;6.73;;;3.40;;
11238;SDS011;5677;48.488;13.436;2022-08-01T07:49:50;2.90;;;2.70;;
11238;SDS011;5677;48.488;13.436;2022-08-01T07:52:17;6.10;;;3.00;;
11238;SDS011;5677;48.488;13.436;2022-08-01T07:54:45;6.10;;;2.93;;
11238;SDS011;5677;48.488;13.436;2022-08-01T07:57:12;10.00;;;3.50;;
11238;SDS011;5677;48.488;13.436;2022-08-01T07:59:40;4.40;;;3.20;;
11238;SDS011;5677;48.488;13.436;2022-08-01T08:02:07;4.43;;;3.00;;
11238;SDS011;5677;48.488;13.436;2022-08-01T08:04:34;5.20;;;3.40;;
11238;SDS011;5677;48.488;13.436;2022-08-01T08:07:01;6.30;;;3.17;;
11238;SDS011;5677;48.488;13.436;2022-08-01T08:09:28;6.00;;;2.67;;
11238;SDS011;5677;48.488;13.436;2022-08-01T08:11:55;3.73;;;3.20;;
11238;SDS011;5677;48.488;13.436;2022-08-01T08:14:22;4.57;;;3.13;;
11238;SDS011;5677;48.488;13.436;2022-08-01T08:16:51;4.93;;;3.10;;
11238;SDS011;5677;48.488;13.436;2022-08-01T08:19:18;2.80;;;2.57;;
11238;SDS011;5677;48.488;13.436;2022-08-01T08:21:45;4.70;;;3.10;;
11238;SDS011;5677;48.488;13.436;2022-08-01T08:24:12;5.47;;;2.70;;
11238;SDS011;5677;48.488;13.436;2022-08-01T08:26:45;4.30;;;2.80;;
11238;SDS011;5677;48.488;13.436;2022-08-01T08:29:13;5.23;;;2.77;;
11238;SDS011;5677;48.488;13.436;2022-08-01T08:31:40;4.37;;;3.07;;
11238;SDS011;5677;48.488;13.436;2022-08-01T08:34:08;5.00;;;2.67;;
11238;SDS011;5677;48.488;13.436;2022-08-01T08:36:35;3.50;;;2.90;;
11238;SDS011;5677;48.488;13.436;2022-08-01T08:39:03;5.00;;;2.70;;
11238;SDS011;5677;48.488;13.436;2022-08-01T08:41:31;4.60;;;2.90;;
11238;SDS011;5677;48.488;13.436;2022-08-01T08:43:59;3.30;;;2.37;;
11238;SDS011;5677;48.488;13.436;2022-08-01T08:46:27;5.40;;;3.17;;
11238;SDS011;5677;48.488;13.436;2022-08-01T08:48:54;2.83;;;2.63;;
11238;SDS011;5677;48.488;13.436;2022-08-01T08:51:23;4.00;;;2.63;;
11238;SDS011;5677;48.488;13.436;2022-08-01T08:53:53;3.83;;;3.10;;
11238;SDS011;5677;48.488;13.436;2022-08-01T08:56:23;5.03;;;3.00;;
11238;SDS011;5677;48.488;13.436;2022-08-01T08:58:51;5.00;;;3.17;;
11238;SDS011;5677;48.488;13.436;2022-08-01T09:01:18;6.40;;;2.80;;
11238;SDS011;5677;48.488;13.436;2022-08-01T09:03:45;5.53;;;2.93;;
11238;SDS011;5677;48.488;13.436;2022-08-01T09:06:13;5.27;;;2.80;;
11238;SDS011;5677;48.488;13.436;2022-08-01T09:08:42;4.03;;;2.97;;
11238;SDS011;5677;48.488;13.436;2022-08-01T09:11:09;3.33;;;2.80;;
11238;SDS011;5677;48.488;13.436;2022-08-01T09:13:36;3.10;;;2.80;;
11238;SDS011;5677;48.488;13.436;2022-08-01T09:16:04;4.20;;;3.13;;
11238;SDS011;5677;48.488;13.436;2022-08-01T09:18:32;5.13;;;3.00;;
11238;SDS011;5677;48.488;13.436;2022-08-01T09:21:08;3.40;;;3.10;;
11238;SDS011;5677;48.488;13.436;2022-08-01T09:23:40;3.50;;;3.10;;
11238;SDS011;5677;48.488;13.436;2022-08-01T09:26:12;5.67;;;2.93;;
11238;SDS011;5677;48.488;13.436;2022-08-01T09:28:41;5.93;;;2.80;;
11238;SDS011;5677;48.488;13.436;2022-08-01T09:31:10;4.47;;;2.77;;
11238;SDS011;5677;48.488;13.436;2022-08-01T09:33:49;8.30;;;2.83;;
11238;SDS011;5677;48.488;13.436;2022-08-01T09:36:20;5.13;;;2.83;;
11238;SDS011;5677;48.488;13.436;2022-08-01T09:38:51;6.87;;;3.30;;
11238;SDS011;5677;48.488;13.436;2022-08-01T09:41:28;47.60;;;14.23;;
11238;SDS011;5677;48.488;13.436;2022-08-01T09:43:57;30.83;;;10.53;;
11238;SDS011;5677;48.488;13.436;2022-08-01T09:46:24;22.63;;;8.23;;
11238;SDS011;5677;48.488;13.436;2022-08-01T09:48:58;25.87;;;7.97;;
11238;SDS011;5677;48.488;13.436;2022-08-01T09:51:28;17.17;;;5.43;;
11238;SDS011;5677;48.488;13.436;2022-08-01T09:53:59;7.83;;;3.70;;
11238;SDS011;5677;48.488;13.436;2022-08-01T09:56:35;6.73;;;3.93;;
11238;SDS011;5677;48.488;13.436;2022-08-01T09:59:04;7.57;;;3.70;;
11238;SDS011;5677;48.488;13.436;2022-08-01T10:01:42;5.23;;;3.50;;
11238;SDS011;5677;48.488;13.436;2022-08-01T10:04:12;5.33;;;3.70;;
11238;SDS011;5677;48.488;13.436;2022-08-01T10:06:42;5.00;;;3.20;;
11238;SDS011;5677;48.488;13.436;2022-08-01T10:09:17;6.37;;;3.43;;
11238;SDS011;5677;48.488;13.436;2022-08-01T10:11:55;6.30;;;3.50;;
11238;SDS011;5677;48.488;13.436;2022-08-01T10:14:23;6.90;;;4.17;;
11238;SDS011;5677;48.488;13.436;2022-08-01T10:16:55;5.80;;;4.27;;
11238;SDS011;5677;48.488;13.436;2022-08-01T10:19:24;8.80;;;4.23;;
11238;SDS011;5677;48.488;13.436;2022-08-01T10:21:53;9.33;;;4.27;;
11238;SDS011;5677;48.488;13.436;2022-08-01T10:24:23;7.80;;;4.10;;
11238;SDS011;5677;48.488;13.436;2022-08-01T10:26:52;5.67;;;3.70;;
11238;SDS011;5677;48.488;13.436;2022-08-01T10:29:28;9.20;;;3.73;;
11238;SDS011;5677;48.488;13.436;2022-08-01T10:32:03;7.93;;;3.60;;
11238;SDS011;5677;48.488;13.436;2022-08-01T10:34:34;6.77;;;3.33;;
11238;SDS011;5677;48.488;13.436;2022-08-01T10:37:02;7.60;;;4.07;;
11238;SDS011;5677;48.488;13.436;2022-08-01T10:39:31;7.83;;;4.13;;
11238;SDS011;5677;48.488;13.436;2022-08-01T10:41:59;6.10;;;3.53;;
11238;SDS011;5677;48.488;13.436;2022-08-01T10:44:28;5.27;;;3.53;;
11238;SDS011;5677;48.488;13.436;2022-08-01T10:46:59;7.40;;;4.17;;
11238;SDS011;5677;48.488;13.436;2022-08-01T10:49:34;4.43;;;3.67;;
11238;SDS011;5677;48.488;13.436;2022-08-01T10:52:13;4.63;;;3.80;;
11238;SDS011;5677;48.488;13.436;2022-08-01T10:54:43;7.73;;;3.73;;
11238;SDS011;5677;48.488;13.436;2022-08-01T10:57:10;4.30;;;3.57;;
11238;SDS011;5677;48.488;13.436;2022-08-01T10:59:47;6.03;;;3.43;;
11238;SDS011;5677;48.488;13.436;2022-08-01T11:02:25;7.50;;;3.73;;
11238;SDS011;5677;48.488;13.436;2022-08-01T11:04:55;5.27;;;3.60;;
11238;SDS011;5677;48.488;13.436;2022-08-01T11:07:35;5.20;;;3.50;;
11238;SDS011;5677;48.488;13.436;2022-08-01T11:10:16;6.60;;;3.57;;
11238;SDS011;5677;48.488;13.436;2022-08-01T11:12:50;7.83;;;4.10;;
11238;SDS011;5677;48.488;13.436;2022-08-01T11:15:21;7.13;;;3.77;;
11238;SDS011;5677;48.488;13.436;2022-08-01T11:17:54;4.57;;;3.70;;
11238;SDS011;5677;48.488;13.436;2022-08-01T11:20:22;7.80;;;3.30;;
11238;SDS011;5677;48.488;13.436;2022-08-01T11:28:44;5.77;;;3.33;;
11238;SDS011;5677;48.488;13.436;2022-08-01T11:31:28;4.87;;;3.60;;
11238;SDS011;5677;48.488;13.436;2022-08-01T11:33:57;6.40;;;3.60;;
11238;SDS011;5677;48.488;13.436;2022-08-01T11:36:26;5.53;;;3.47;;
11238;SDS011;5677;48.488;13.436;2022-08-01T11:39:13;5.30;;;3.40;;
11238;SDS011;5677;48.488;13.436;2022-08-01T11:41:46;4.53;;;3.33;;
11238;SDS011;5677;48.488;13.436;2022-08-01T11:44:18;4.43;;;3.40;;
11238;SDS011;5677;48.488;13.436;2022-08-01T11:46:57;3.93;;;3.07;;
11238;SDS011;5677;48.488;13.436;2022-08-01T11:49:32;4.80;;;3.27;;
11238;SDS011;5677;48.488;13.436;2022-08-01T11:52:24;4.73;;;3.37;;
11238;SDS011;5677;48.488;13.436;2022-08-01T11:54:54;4.27;;;3.00;;
11238;SDS011;5677;48.488;13.436;2022-08-01T11:57:25;5.53;;;3.77;;
11238;SDS011;5677;48.488;13.436;2022-08-01T12:00:00;4.90;;;3.20;;
11238;SDS011;5677;48.488;13.436;2022-08-01T12:02:35;4.30;;;3.10;;
11238;SDS011;5677;48.488;13.436;2022-08-01T12:05:04;4.97;;;3.10;;
11238;SDS011;5677;48.488;13.436;2022-08-01T12:07:34;4.67;;;3.03;;
11238;SDS011;5677;48.488;13.436;2022-08-01T12:10:03;4.57;;;3.07;;
11238;SDS011;5677;48.488;13.436;2022-08-01T12:12:35;4.17;;;2.80;;
11238;SDS011;5677;48.488;13.436;2022-08-01T12:15:08;4.53;;;2.80;;
11238;SDS011;5677;48.488;13.436;2022-08-01T12:17:38;5.37;;;3.50;;
11238;SDS011;5677;48.488;13.436;2022-08-01T12:20:08;5.37;;;3.33;;
11238;SDS011;5677;48.488;13.436;2022-08-01T12:22:39;4.20;;;3.20;;
11238;SDS011;5677;48.488;13.436;2022-08-01T12:25:09;5.13;;;3.37;;
11238;SDS011;5677;48.488;13.436;2022-08-01T12:27:39;3.50;;;3.07;;
11238;SDS011;5677;48.488;13.436;2022-08-01T12:30:09;4.03;;;3.07;;
11238;SDS011;5677;48.488;13.436;2022-08-01T12:32:39;3.80;;;2.90;;
11238;SDS011;5677;48.488;13.436;2022-08-01T12:35:10;4.03;;;3.30;;
11238;SDS011;5677;48.488;13.436;2022-08-01T12:37:40;5.13;;;3.33;;
11238;SDS011;5677;48.488;13.436;2022-08-01T12:40:10;3.40;;;2.90;;
11238;SDS011;5677;48.488;13.436;2022-08-01T12:42:42;3.80;;;3.40;;
11238;SDS011;5677;48.488;13.436;2022-08-01T12:45:13;3.33;;;3.03;;
11238;SDS011;5677;48.488;13.436;2022-08-01T12:47:43;4.37;;;3.20;;
11238;SDS011;5677;48.488;13.436;2022-08-01T12:50:12;2.87;;;2.60;;
11238;SDS011;5677;48.488;13.436;2022-08-01T12:52:41;3.40;;;2.80;;
11238;SDS011;5677;48.488;13.436;2022-08-01T12:55:10;4.00;;;3.13;;
11238;SDS011;5677;48.488;13.436;2022-08-01T12:57:40;3.93;;;2.80;;
11238;SDS011;5677;48.488;13.436;2022-08-01T13:00:19;3.47;;;3.17;;
11238;SDS011;5677;48.488;13.436;2022-08-01T13:02:49;3.50;;;2.67;;
11238;SDS011;5677;48.488;13.436;2022-08-01T13:05:28;3.60;;;2.60;;
11238;SDS011;5677;48.488;13.436;2022-08-01T13:08:09;5.50;;;2.63;;
11238;SDS011;5677;48.488;13.436;2022-08-01T13:10:37;3.93;;;2.60;;
11238;SDS011;5677;48.488;13.436;2022-08-01T13:13:09;8.13;;;2.70;;
11238;SDS011;5677;48.488;13.436;2022-08-01T13:15:38;5.30;;;2.70;;
11238;SDS011;5677;48.488;13.436;2022-08-01T13:18:24;5.17;;;2.93;;
11238;SDS011;5677;48.488;13.436;2022-08-01T13:21:06;5.43;;;2.80;;
11238;SDS011;5677;48.488;13.436;2022-08-01T13:23:36;6.77;;;2.60;;
11238;SDS011;5677;48.488;13.436;2022-08-01T13:26:03;13.03;;;3.17;;
11238;SDS011;5677;48.488;13.436;2022-08-01T13:28:32;5.57;;;2.70;;
11238;SDS011;5677;48.488;13.436;2022-08-01T13:31:02;4.77;;;2.77;;
11238;SDS011;5677;48.488;13.436;2022-08-01T13:33:39;9.40;;;2.77;;
11238;SDS011;5677;48.488;13.436;2022-08-01T13:36:08;3.53;;;2.47;;
11238;SDS011;5677;48.488;13.436;2022-08-01T13:38:36;4.77;;;2.90;;
11238;SDS011;5677;48.488;13.436;2022-08-01T13:41:21;2.87;;;2.60;;
11238;SDS011;5677;48.488;13.436;2022-08-01T13:43:50;4.33;;;2.60;;
11238;SDS011;5677;48.488;13.436;2022-08-01T13:46:17;3.13;;;2.40;;
11238;SDS011;5677;48.488;13.436;2022-08-01T13:48:45;3.27;;;2.40;;
11238;SDS011;5677;48.488;13.436;2022-08-01T13:51:12;7.67;;;2.80;;
11238;SDS011;5677;48.488;13.436;2022-08-01T13:53:38;5.67;;;2.60;;
11238;SDS011;5677;48.488;13.436;2022-08-01T13:56:05;5.50;;;2.87;;
11238;SDS011;5677;48.488;13.436;2022-08-01T13:58:32;6.90;;;3.07;;
11238;SDS011;5677;48.488;13.436;2022-08-01T14:01:01;8.30;;;2.97;;
11238;SDS011;5677;48.488;13.436;2022-08-01T14:03:29;9.83;;;3.03;;
11238;SDS011;5677;48.488;13.436;2022-08-01T14:05:56;10.73;;;3.30;;
11238;SDS011;5677;48.488;13.436;2022-08-01T14:08:23;8.03;;;2.90;;
11238;SDS011;5677;48.488;13.436;2022-08-01T14:10:50;7.07;;;2.70;;
11238;SDS011;5677;48.488;13.436;2022-08-01T14:13:18;7.20;;;3.10;;
11238;SDS011;5677;48.488;13.436;2022-08-01T14:15:45;8.33;;;3.20;;
11238;SDS011;5677;48.488;13.436;2022-08-01T14:18:13;4.57;;;2.80;;
11238;SDS011;5677;48.488;13.436;2022-08-01T14:20:40;4.43;;;2.30;;
11238;SDS011;5677;48.488;13.436;2022-08-01T14:23:08;2.97;;;2.27;;
11238;SDS011;5677;48.488;13.436;2022-08-01T14:25:36;5.60;;;2.33;;
11238;SDS011;5677;48.488;13.436;2022-08-01T14:28:04;5.87;;;2.60;;
11238;SDS011;5677;48.488;13.436;2022-08-01T14:30:31;5.20;;;2.70;;
11238;SDS011;5677;48.488;13.436;2022-08-01T14:32:59;6.47;;;2.53;;
11238;SDS011;5677;48.488;13.436;2022-08-01T14:35:28;13.67;;;3.40;;
11238;SDS011;5677;48.488;13.436;2022-08-01T14:37:55;7.73;;;2.83;;
11238;SDS011;5677;48.488;13.436;2022-08-01T14:40:22;4.00;;;2.87;;
11238;SDS011;5677;48.488;13.436;2022-08-01T14:42:49;4.73;;;2.50;;
11238;SDS011;5677;48.488;13.436;2022-08-01T14:45:16;6.13;;;2.80;;
11238;SDS011;5677;48.488;13.436;2022-08-01T14:47:43;10.07;;;3.00;;
11238;SDS011;5677;48.488;13.436;2022-08-01T14:50:13;4.87;;;2.60;;
11238;SDS011;5677;48.488;13.436;2022-08-01T14:52:42;4.93;;;2.83;;
11238;SDS011;5677;48.488;13.436;2022-08-01T14:55:10;4.83;;;2.83;;
11238;SDS011;5677;48.488;13.436;2022-08-01T14:57:38;5.57;;;2.57;;
11238;SDS011;5677;48.488;13.436;2022-08-01T15:00:07;3.87;;;2.60;;
11238;SDS011;5677;48.488;13.436;2022-08-01T15:02:37;5.27;;;2.60;;
11238;SDS011;5677;48.488;13.436;2022-08-01T15:05:05;3.40;;;2.47;;
11238;SDS011;5677;48.488;13.436;2022-08-01T15:07:33;4.63;;;2.67;;
11238;SDS011;5677;48.488;13.436;2022-08-01T15:10:02;3.73;;;2.47;;